Tiempo atmosférico en la estación meteorológica de Colmenar Viejo, Madrid (1004 m.)



Fecha
DESCASC
Temp. máxima en grados centígrados (hora)
DESCASC
Temp. mínima en grados centígrados (hora)
DESCASC
Temp. media en grados centígrados
DESCASC
Racha de viento máxima en m/sg (hora)
DESCASC
Velocidad máxima media en intervalos de 10 minutos(hora)
DESCASC
Precipitaciones diarias en mm
DESCASC
Precipitaciones de 00:00 a 06:00 en mm
DESCASC
Precipitaciones de 06:00 a 12:00 en mm
DESCASC
Precipitaciones de 12:00 a 18:00 en mm
DESCASC
Precipitaciones de 18:00 a 24:00 en mm
DESCASC
05-04-2020 14.5 (16:10) 6.8 (05:10) 10.7 6.67 (00:10) 4.17 (00:10) 0.3 0 0 0 0.3
04-04-2020 14 (17:20) 4.8 (07:30) 9.4 11.67 (17:30) 6.11 (16:30) 0 0 0 0 0
03-04-2020 13.5 (16:20) 2 (06:50) 7.8 6.67 (00:10) 3.61 (00:10) 0 0 0 0 0
02-04-2020 11.2 (14:00) -0.1 (00:00) 5.5 13.61 (13:10) 7.5 (14:40) 1.2 0 0 1.2 0
01-04-2020 8.5 (16:40) 2.3 (00:00) 5.4 9.72 (14:30) 5.83 (12:50) 7.1 0.5 1 5.6 0
31-03-2020 6.1 (20:20) -2.3 (-00:0) 1.9 12.5 (00:20) 8.06 (00:20) 23.4 0 2.9 12.6 7.9
30-03-2020 8.8 (00:10) -1.5 (-00:0) 3.7 11.67 (13:20) 7.5 (13:10) 0.1 0 0 0.1 0
29-03-2020 15.8 (17:20) 4.9 (00:00) 10.4 6.11 (22:00) 3.06 (22:00) 0 0 0 0 0
28-03-2020 12.2 (15:20) 1 (00:00) 6.6 8.06 (14:10) 3.61 (10:20) 0 0 0 0 0
27-03-2020 7.6 (18:10) -0.4 (00:00) 3.6 10 (01:10) 6.67 (10:20) 0 0 0 0 0
26-03-2020 11.1 (15:20) 3.6 (00:00) 7.4 11.94 (10:50) 4.72 (12:20) 0 0 0 0 0
25-03-2020 14.3 (16:00) 2.7 (00:00) 8.5 10.83 (10:40) 4.44 (18:10) 0 0 0 0 0
24-03-2020 11.7 (14:20) 5.9 (00:00) 8.8 13.61 (09:30) 9.17 (07:00) 0 0 0 0 0
23-03-2020 11.3 (16:10) 4.9 (00:00) 8.1 9.72 (10:40) 6.67 (10:00) 3.7 0.2 0.6 2.9 0
22-03-2020 8.5 (17:50) 2.9 (07:30) 5.7 7.78 (12:10) 5.28 (21:40) 3 1.3 0 1.4 0.3
21-03-2020 6.8 (01:00) 3.8 (00:00) 5.3 6.94 (15:20) 4.44 (16:10) 2.6 0 0.2 1.3 1.1
20-03-2020 8 (13:00) 5.3 (00:00) 6.7 5 (14:50) 2.78 (02:20) 0.1 0.1 0 0 0
19-03-2020 12.9 (16:40) 6.9 (00:00) 9.9 5.83 (22:00) 3.89 (22:00) 0 0 0 0 0
18-03-2020 14.4 (15:00) 6.5 (00:00) 10.4 12.5 (11:10) 5.28 (06:10) 0 0 0 0 0
17-03-2020 11.4 (16:30) 1.1 (00:00) 6.2 12.5 (08:50) 8.89 (08:10) 5.1 3.5 1.6 0 0
16-03-2020 8.2 (00:10) -1.7 (-00:0) 3.2 15.83 (15:50) 9.72 (16:00) 15.8 0 0.4 12.7 2.7
15-03-2020 15.9 (14:30) 7.6 (00:00) 11.7 15.28 (19:10) 7.78 (19:10) 1.8 0 0 0 1.8
14-03-2020 17.9 (16:40) 7.6 (00:00) 12.7 6.94 (01:40) 4.72 (01:40) 0 0 0 0 0
13-03-2020 18.8 (17:00) 11 (08:00) 14.9 10 (16:50) 3.89 (04:50) 0 0 0 0 0
12-03-2020 20.9 (15:10) 13.1 (00:00) 17 5.83 (19:50) 3.61 (17:10) 0 0 0 0 0
11-03-2020 20.6 (16:30) 10.9 (00:00) 15.8 5 (16:40) 3.33 (16:40) 0 0 0 0 0
10-03-2020 19.5 (17:10) 6.8 (00:00) 13.2 6.94 (20:10) 3.33 (18:40) 0 0 0 0 0

Gráficas

Temp. máximas Temp. mínimas Temp. medias Precipitaciones Rachas de viento máximas Velocidades máximas media en intervalos de 10 minutos

Datos horarios

Fecha y hora oficial Temperatura (ºC) Velocidad del viento (km/h) Dirección del viento Racha (km/h) Dirección de racha Precipitación (mm) Presión (hPa) Tendencia (hPa) Humedad (%)
2020-04-08 23:00:00 12.8 4 Noroeste 7 Oeste 0 906.9 0.7 62
2020-04-08 22:00:00 13.4 4 Oeste 5 Sudoeste 0 906.5 0.3 58
2020-04-08 21:00:00 14.1 3 Noroeste 6 Oeste 0 906.2 0.1 57
2020-04-08 20:00:00 15.5 3 Oeste 9 Sudoeste 0 906.2 -0.5 55
2020-04-08 19:00:00 16.8 5 Sudoeste 15 Oeste 0 906.2 -1.2 52
2020-04-08 18:00:00 17 5 Noroeste 15 Sudoeste 0 906.1 -1.5 57
2020-04-08 17:00:00 15.4 6 Sudoeste 15 Sudoeste 0 906.7 -1.6 60
2020-04-08 16:00:00 15.2 7 Sur 21 Sur 0 907.4 -1.4 62
2020-04-08 15:00:00 15.6 9 Sur 24 Sur 0 907.6 -1.4 64
2020-04-08 14:00:00 14.3 9 Sur 18 Sur 0 908.3 -1 75
2020-04-08 13:00:00 14.8 9 Sur 15 Sur 0 908.8 -0.5 75
2020-04-08 12:00:00 14.2 6 Sudeste 13 Sudeste 0 909 -0.1 80
2020-04-08 11:00:00 11.6 2 Sudeste 13 Sudeste 0 909.3 0.5 95
2020-04-08 10:00:00 10 3 Sur 6 Sur 0 909.3 0.7 99
2020-04-08 09:00:00 9 4 Sudeste 8 Sudeste 0 909.1 0.8 99
2020-04-08 08:00:00 9.2 5 Sudeste 10 Sudeste 0 908.8 -0.1 99
2020-04-08 07:00:00 9.4 6 Sudeste 9 Sudeste 0 908.6 -0.7 99
2020-04-08 06:00:00 10.1 7 Sudeste 11 Este 0 908.3 -1.4 99
2020-04-08 05:00:00 10.6 6 Sudeste 11 Este 0 908.9 -0.9 99
2020-04-08 04:00:00 10.7 5 Sudeste 9 Sudeste 0 909.3 -0.6 99
2020-04-08 03:00:00 10.8 4 Este 7 Este 0.5 909.7 -0.2 99
2020-04-08 02:00:00 10.8 4 Este 6 Este 0 909.8 0.1 99
2020-04-08 01:00:00 11 2 Este 8 Sudeste 0.1 909.9 0.5 99
2020-04-08 00:00:00 11.3 4 Sudeste 11 Sudeste 3.1 909.9 1.2 99
2020-04-07 23:00:00 11.5 6 Sudeste 12 Sudeste 0.4 909.7 1.2 99
2020-04-07 22:00:00 11.5 8 Sudeste 10 Este 0 909.4 1.1 98
2020-04-07 21:00:00 11.7 5 Este 9 Sudeste 0 908.7 0.4 94
2020-04-07 20:00:00 12.1 6 Sudeste 11 Sur 0 908.5 0.3 87
2020-04-07 19:00:00 13 6 Sur 11 Sudeste 0 908.3 0.1 83
2020-04-07 18:00:00 12.6 7 Sudeste 16 Sur 0 908.3 -0.6 84
2020-04-07 17:00:00 12.8 11 Sur 18 Sur 0 908.2 -1 73
2020-04-07 16:00:00 14.5 4 Oeste 14 Sur 0 908.2 -1.1 65
2020-04-07 15:00:00 13.7 8 Sur 15 Sur 0 908.9 -0.6 76
2020-04-07 14:00:00 12.8 8 Sudeste 13 Sur 0 909.2 -0.2 82
2020-04-07 13:00:00 11.7 7 Sur 13 Sudeste 0 909.3 0.5 91
2020-04-07 12:00:00 11 5 Sudeste 14 Sur 0 909.5 0.8 99
2020-04-07 11:00:00 9.8 8 Sur 12 Sur 0 909.4 1.3 99
2020-04-07 10:00:00 9.5 4 Sur 8 Sudeste 0 908.8 0.9 99
2020-04-07 09:00:00 9.1 4 Sur 9 Sudoeste 0 908.7 1.1 99
2020-04-07 08:00:00 8.7 4 Sudoeste 10 Sur 0 908.1 0.6 99
2020-04-07 07:00:00 8.9 4 Sur 8 Sur 0 907.9 0.1 99
2020-04-07 06:00:00 8.9 6 Sur 10 Sur 0 907.6 -0.4 99
2020-04-07 05:00:00 9.3 5 Sudeste 8 Oeste 0 907.5 -0.8 99
2020-04-07 04:00:00 9.3 4 Noroeste 13 Sudoeste 0 907.8 -0.4 99
2020-04-07 03:00:00 9.3 5 Sudoeste 11 Sudoeste 0 908 -0.2 97
2020-04-07 02:00:00 9.3 5 Sudoeste 14 Sudoeste 0.3 908.3 0 92
2020-04-07 01:00:00 10.3 3 Sudoeste 5 Sudoeste 0 908.2 0.6 76
2020-04-07 00:00:00 10.2 3 Sudoeste 9 Sur 0.1 908.2 1.4 72
2020-04-06 23:00:00 10.8 9 Sudoeste 12 Sudoeste 0 908.3 1.7 70
2020-04-06 22:00:00 10.8 6 Sudoeste 10 Sudoeste 0 907.6 1.1 67
2020-04-06 21:00:00 11.1 8 Oeste 11 Oeste 0 906.8 0.5 68
2020-04-06 20:00:00 11.5 5 Sudoeste 14 Oeste 0 906.6 -- 68
2020-04-06 19:00:00 11.5 6 Oeste 37 Sudoeste 0 906.5 0.2 67
2020-04-06 18:00:00 13.2 15 Sudoeste 25 Sudoeste 0 906.3 -0.5 57
2020-04-06 17:00:00 -- 15 Sudoeste -- -- -- -- -- --
2020-04-06 16:00:00 13.1 14 Sudoeste 33 Sudoeste 0 906.3 -0.2 66
2020-04-06 15:00:00 13.2 21 Sudoeste 33 Sudoeste 0 906.8 0.4 66
2020-04-06 14:00:00 12.6 17 Sudoeste 27 Sudoeste 0 906.7 0.9 76
2020-04-06 13:00:00 11.9 13 Sudoeste 21 Sur 0 906.5 -- 94
2020-04-06 12:00:00 10.4 9 Sudoeste 21 Sudoeste 0 906.4 1.9 99
2020-04-06 11:00:00 10.2 12 Sudoeste 24 Sudoeste 0 905.8 1.8 99
2020-04-06 10:00:00 -- 15 Sudoeste 22 Sur 0.6 -- -- --
2020-04-06 09:00:00 9.6 11 Sur 22 Sur 0.4 904.5 1.1 99
2020-04-06 08:00:00 9.6 9 Sur 19 Sudoeste 2.2 904 0.6 99
2020-04-06 07:00:00 9.7 6 Sudoeste 17 Sudoeste 0.6 903.4 0.1 99
2020-04-06 06:00:00 9.8 6 Sur 18 Sudoeste 0.6 903.4 0 99
2020-04-06 05:00:00 9.9 5 Sur 14 Sudoeste 0.1 903.4 -0.1 99
2020-04-06 04:00:00 10.2 5 Sur 17 Sudoeste 0 903.3 0 96
2020-04-06 03:00:00 10.4 12 Sudoeste 18 Sudoeste 0.1 903.4 0.2 95
2020-04-06 02:00:00 10.3 11 Sudoeste 21 Sudoeste 0.5 903.5 0.4 91
2020-04-06 01:00:00 11.2 8 Oeste 16 Oeste 0 903.3 0.6 76
2020-04-06 00:00:00 11.2 6 Oeste 14 Sudoeste 0.3 903.2 1.1 73
2020-04-05 23:00:00 12.4 8 Sudoeste 13 Sudoeste 0 903.1 1.1 62
2020-04-05 22:00:00 12.2 5 Oeste 8 Sudoeste 0 902.7 0.5 61
2020-04-05 21:00:00 12.7 7 Sudoeste 17 Sur 0 902.1 0.1 59
2020-04-05 20:00:00 13.3 6 Sur 14 Sudoeste 0 902 -0.3 58
2020-04-05 19:00:00 13.8 6 Sur 19 Sur 0 902.2 -0.6 56
2020-04-05 18:00:00 14.1 10 Sudoeste 23 Sudoeste 0 902 -1.1 55
2020-04-05 17:00:00 13.6 12 Sudoeste 21 Sudoeste 0 902.3 -1.3 55
2020-04-05 16:00:00 14.3 12 Sur 21 Sur 0 902.8 -1 55
2020-04-05 15:00:00 13.5 12 Sudoeste 24 Sur 0 903.1 -1.1 55
2020-04-05 14:00:00 13.1 13 Sur 22 Sur 0 903.6 -0.4 59
2020-04-05 13:00:00 11.9 10 Sur 19 Sur 0 903.8 0 64
2020-04-05 12:00:00 10.6 5 Sudoeste 14 Sur 0 904.2 0.7 74
2020-04-05 11:00:00 10 9 Sur 18 Sudoeste 0 904 0.8 76
2020-04-05 10:00:00 8.8 7 Sudoeste 14 Oeste 0 903.8 1.2 85
2020-04-05 09:00:00 7.1 5 Oeste 10 Oeste 0 903.5 1.1 90
2020-04-05 08:00:00 6.9 0 Calma 4 Noroeste 0 903.2 0.9 88
2020-04-05 07:00:00 6.8 0 Calma 4 Oeste 0 902.6 0.4 88
2020-04-05 06:00:00 6.9 0 Calma 9 Sur 0 902.4 0.2 88
2020-04-05 05:00:00 6.9 8 Sur 14 Sudoeste 0 902.3 -0.3 88
2020-04-05 04:00:00 7.3 7 Sudoeste 17 Sudoeste 0 902.2 -0.3 83
2020-04-05 03:00:00 7.5 9 Sudoeste 17 Sudoeste 0 902.2 0 77
2020-04-05 02:00:00 7.8 11 Sudoeste 19 Sudoeste 0 902.6 0.5 70
2020-04-05 01:00:00 8.3 13 Sudoeste 24 Sudoeste 0 902.5 0.6 64
2020-04-05 00:00:00 8.6 15 Sudoeste 24 Sudoeste 0 902.2 1.2 62
2020-04-04 23:00:00 9.2 14 Sudoeste 31 Sudoeste 0 902.1 1 60
2020-04-04 22:00:00 9.5 14 Sudoeste 23 Sudoeste 0 901.9 1 57
2020-04-04 21:00:00 10.3 14 Sudoeste 23 Sudoeste 0 901 0.2 53
2020-04-04 20:00:00 11.5 13 Sudoeste 24 Sudoeste 0 901.1 0.3 47
2020-04-04 19:00:00 12.6 14 Sudoeste 28 Sur 0 900.9 -0.3 44
2020-04-04 18:00:00 13.4 17 Sudoeste 42 Sudoeste 0 900.8 -0.9 42
2020-04-04 17:00:00 12.9 20 Sudoeste 38 Sudoeste 0 900.8 -1.4 44
2020-04-04 16:00:00 13.1 18 Sudoeste 34 Sudoeste 0 901.2 -1.6 46
2020-04-04 15:00:00 12.6 17 Sudoeste 33 Sudoeste 0 901.7 -1.2 44
2020-04-04 14:00:00 12.2 13 Sur 28 Sudoeste 0 902.2 -0.6 52
2020-04-04 13:00:00 11.7 14 Sur 24 Sudoeste 0 902.8 0.4 55
2020-04-04 12:00:00 10.5 13 Sudoeste 22 Sudoeste 0 902.9 0.7 53
2020-04-04 11:00:00 10.7 8 Sudoeste 16 Sudoeste 0 902.8 0.8 56
2020-04-04 10:00:00 9 4 Oeste 9 Oeste 0 902.4 0.9 58
2020-04-04 09:00:00 7 4 Noroeste 9 Noroeste 0 902.2 0.8 61
2020-04-04 08:00:00 4.9 6 Oeste 12 Oeste 0 902 0.4 58
2020-04-04 07:00:00 5.3 9 Noroeste 12 Oeste 0 901.5 -0.4 55
2020-04-04 06:00:00 6.6 6 Noroeste 11 Noroeste 0 901.4 -0.6 51
2020-04-04 05:00:00 5.8 5 Noroeste 7 Noroeste 0 901.6 -0.7 51
2020-04-04 04:00:00 6.8 4 Sur 8 Sur 0 901.9 -0.6 51
2020-04-04 03:00:00 7.6 5 Noroeste 9 Norte 0 902 -0.3 51
2020-04-04 02:00:00 7.4 8 Norte 12 Noroeste 0 902.3 -0.1 54
2020-04-04 01:00:00 7.3 6 Noroeste 8 Noroeste 0 902.5 0.5 54
2020-04-04 00:00:00 7.9 4 Oeste 6 Oeste 0 902.3 1.1 48
2020-04-03 23:00:00 8.3 5 Oeste 8 Oeste 0 902.4 1.2 46
2020-04-03 22:00:00 9.3 4 Sudoeste 12 Sur 0 902 1.1 42
2020-04-03 21:00:00 10.2 8 Sudoeste 13 Sudoeste 0 901.2 0.3 41
2020-04-03 20:00:00 11.4 8 Sudoeste 15 Sur 0 901.2 0.1 41
2020-04-03 19:00:00 12.9 10 Sur 18 Sudoeste 0 900.9 -0.6 39
2020-04-03 18:00:00 13 12 Sur 19 Sur 0 900.9 -1.1 39
2020-04-03 17:00:00 13.1 13 Sudoeste 20 Sur 0 901.1 -1.3 42
2020-04-03 16:00:00 13.1 10 Sur 21 Sudoeste 0 901.5 -1.1 43
2020-04-03 15:00:00 11.7 9 Sudoeste 21 Sur 0 902 -0.5 45
2020-04-03 14:00:00 11.4 6 Sur 17 Sudoeste 0 902.4 -0.2 47
2020-04-03 13:00:00 10.1 8 Sur 16 Sur 0 902.6 0.3 53
2020-04-03 12:00:00 8.9 5 Sur 12 Sudoeste 0 902.5 0.5 61
2020-04-03 11:00:00 7.2 0 Calma 10 Sudoeste 0 902.6 1.3 66
2020-04-03 10:00:00 5.3 5 Sudoeste 9 Sur 0 902.3 1.6 75
2020-04-03 09:00:00 3.2 0 Calma 5 Noroeste 0 902 1.4 85
2020-04-03 08:00:00 2.1 3 Noroeste 6 Noroeste 0 901.3 0.8 87
2020-04-03 07:00:00 2.1 3 Oeste 8 Oeste 0 900.7 0.1 87
2020-04-03 06:00:00 2.5 4 Oeste 8 Oeste 0 900.6 -0.2 83
2020-04-03 05:00:00 3.6 4 Sudoeste 8 Sur 0 900.5 -0.4 81
2020-04-03 04:00:00 3.8 3 Oeste 10 Oeste 0 900.6 -0.3 79
2020-04-03 03:00:00 4.1 6 Oeste 11 Noroeste 0 900.8 -0.1 76
2020-04-03 02:00:00 4.9 5 Noroeste 17 Norte 0 900.9 0.1 71
2020-04-03 01:00:00 5.5 9 Noroeste 24 Noroeste 0 900.9 0.7 70
2020-04-03 00:00:00 5.7 13 Noroeste 23 Norte 0 900.9 1.5 70
2020-04-02 23:00:00 6.7 13 Oeste 22 Norte 0 900.8 1.8 75
2020-04-02 22:00:00 6.8 10 Noroeste 31 Noroeste 0 900.2 1.6 74
2020-04-02 21:00:00 7.5 13 Noroeste 30 Noroeste 0 899.4 1.3 67
2020-04-02 20:00:00 8.6 10 Noroeste 24 Noroeste 0 899 0.9 62
2020-04-02 19:00:00 9.1 9 Oeste 16 Noroeste 0 898.6 0.4 65
2020-04-02 18:00:00 8.8 7 Noroeste -- -- 0 898.1 -0.5 64
2020-04-02 17:00:00 9.1 12 Norte 24 Norte 0 898.1 0.2 59
2020-04-02 16:00:00 10.3 11 Noroeste 21 Noroeste 0.1 898.2 0.1 66
2020-04-02 15:00:00 7.2 17 Noroeste 39 Oeste 1.1 898.6 0.9 85
2020-04-02 14:00:00 11.2 18 Oeste 49 Sudoeste 0 897.9 0.2 53
2020-04-02 13:00:00 10.9 19 Oeste 29 Oeste 0 898.1 0.6 50
2020-04-02 12:00:00 9.5 11 Oeste 27 Sudoeste 0 897.7 0.8 53
2020-04-02 11:00:00 8.8 2 Noroeste 44 Sudoeste 0 897.7 0.9 58
2020-04-02 10:00:00 5.7 3 Norte 9 Oeste 0 897.5 1.1 69
2020-04-02 09:00:00 2.6 6 Noroeste 15 Noroeste 0 896.9 0.7 68
2020-04-02 08:00:00 0.9 8 Noroeste 12 Noroeste 0 896.8 0.7 78
2020-04-02 07:00:00 1.5 2 Noroeste 9 Norte 0 896.4 -0.4 73
2020-04-02 06:00:00 2.7 5 Noroeste 11 Noroeste 0 896.2 -1.1 66
2020-04-02 05:00:00 2.7 5 Noroeste 9 Noroeste 0 896.1 -1.3 62
2020-04-02 04:00:00 2.6 6 Noroeste 9 Noroeste 0 896.8 -0.8 62
2020-04-02 03:00:00 3.3 0 Calma 6 Sudoeste 0 897.3 -0.6 59
2020-04-02 02:00:00 3.5 4 Noroeste 5 Noroeste 0 897.4 -0.4 58
2020-04-02 01:00:00 3.4 3 Noroeste 9 Noroeste 0 897.6 0.1 62
2020-04-02 00:00:00 4 4 Oeste 9 Oeste 0 897.9 1 60
2020-04-01 23:00:00 2.6 4 Oeste 11 Oeste 0 897.8 1.1 64
2020-04-01 22:00:00 3.9 5 Oeste 9 Sudoeste 0 897.5 1.2 64
2020-04-01 21:00:00 4.9 7 Sudoeste 18 Sudoeste 0 896.9 0.5 61
2020-04-01 20:00:00 6.8 12 Sudoeste 22 Sudoeste 0 896.7 0.2 50
2020-04-01 19:00:00 7.1 13 Sudoeste 26 Sudoeste 0 896.3 -0.4 53
2020-04-01 18:00:00 7.4 13 Sudoeste 26 Sudoeste 0 896.4 -0.8 55
2020-04-01 17:00:00 8 14 Sudoeste 30 Sudoeste 0 896.5 -1 55
2020-04-01 16:00:00 7.3 12 Sudoeste 22 Sudoeste 0 896.7 -1 78
2020-04-01 15:00:00 5.5 5 Oeste 35 Sur 0 897.2 -0.3 87
2020-04-01 14:00:00 4 10 Noroeste 17 Noroeste 3.2 897.5 0 99
2020-04-01 13:00:00 2.8 11 Oeste 33 Sudoeste 2.4 897.7 0.7 99
2020-04-01 12:00:00 4.9 13 Oeste 21 Sudoeste 0 897.5 0.6 99
2020-04-01 11:00:00 6.4 6 Oeste 13 Noroeste 0 897.5 1.2 99
2020-04-01 10:00:00 5.1 5 Oeste 8 Oeste 0 897 1.1 99
2020-04-01 09:00:00 4.6 3 Oeste 6 Noroeste 0 896.9 1 99
2020-04-01 08:00:00 4.3 6 Noroeste 12 Noroeste 0 896.3 0.3 99
2020-04-01 07:00:00 4.5 4 Oeste 17 Oeste 1 895.9 -0.3 99
2020-04-01 06:00:00 4.6 7 Oeste 10 Oeste 0.3 895.9 -0.5 99
2020-04-01 05:00:00 4.6 7 Oeste 18 Oeste 0 896 -0.2 99
2020-04-01 04:00:00 4.7 11 Oeste 16 Oeste 0 896.2 0.4 99
2020-04-01 03:00:00 4.7 9 Oeste 15 Oeste 0 896.4 0.6 99
2020-04-01 02:00:00 4.7 10 Oeste 18 Oeste 0.2 896.2 0.7 99
2020-04-01 01:00:00 4.9 12 Oeste 20 Sudoeste 0 895.8 0.9 99
2020-04-01 00:00:00 5.5 11 Sudoeste 18 Sur 0 895.8 1.7 99
2020-03-31 23:00:00 5.5 8 Oeste 26 Oeste 1 895.5 1.7 99
2020-03-31 22:00:00 5.2 16 Sudoeste 35 Oeste 3.6 894.9 1.1 99
2020-03-31 21:00:00 5.8 14 Oeste 23 Oeste 0.2 894.1 0.8 99
2020-03-31 20:00:00 5.6 10 Oeste 22 Norte 0.7 893.8 1 99
2020-03-31 19:00:00 4.1 6 Noroeste 17 Norte 2.4 893.8 1.2 99
2020-03-31 18:00:00 3 9 Noroeste 18 Norte 3.1 893.3 0.5 99
2020-03-31 17:00:00 3.9 6 Noroeste 24 Oeste 0.9 892.8 -0.2 99
2020-03-31 16:00:00 3.5 11 Noroeste 23 Norte 0.6 892.6 -0.4 99
2020-03-31 15:00:00 1.4 12 Norte 33 Oeste 1.2 892.8 -0.3 99
2020-03-31 14:00:00 2 15 Noroeste 37 Oeste 2.4 893 -0.4 99
2020-03-31 13:00:00 0.9 6 Noroeste 25 Noroeste 4.4 893 -0.2 99
2020-03-31 12:00:00 -0.1 11 Noroeste 25 Oeste 2.7 893.1 0.2 99
2020-03-31 11:00:00 -0.1 12 Noroeste 27 Noroeste 0.2 893.4 1 99
2020-03-31 10:00:00 -0.6 10 Noroeste 28 Norte 0 893.2 0.6 99
2020-03-31 09:00:00 -0.8 12 Nordeste 31 Nordeste 0 892.9 -0.2 99
2020-03-31 08:00:00 -1.4 16 Nordeste 38 Nordeste 0 892.4 -0.9 99
2020-03-31 07:00:00 -1.9 20 Nordeste 37 Nordeste 0 892.6 -1.2 99
2020-03-31 06:00:00 -2 20 Nordeste 40 Nordeste 0 893.1 -1.4 99
2020-03-31 05:00:00 -2.2 19 Nordeste 41 Nordeste 0 893.3 -1.7 99
2020-03-31 04:00:00 -2 22 Nordeste 39 Nordeste 0 893.8 -2.5 99
2020-03-31 03:00:00 -1.7 21 Nordeste 44 Nordeste 0 894.5 -2.4 99
2020-03-31 02:00:00 -1.7 23 Nordeste 39 Nordeste 0 895 -1.9 99
2020-03-31 01:00:00 -1.8 18 Nordeste 45 Este 0 896.3 -0.4 99
2020-03-31 00:00:00 -1.5 26 Nordeste 38 Este 0 896.9 0 99
2020-03-30 23:00:00 -1.2 25 Este 38 Nordeste 0 896.9 -0.1 99
2020-03-30 22:00:00 -1 23 Este 31 Este 0 896.7 -0.5 99
2020-03-30 21:00:00 -0.9 21 Este 32 Este 0 896.9 -0.4 99
2020-03-30 20:00:00 -0.5 18 Este 28 Este 0 897 -0.8 99
2020-03-30 19:00:00 -0.5 22 Este 31 Este 0 897.2 -0.9 99
2020-03-30 18:00:00 0 21 Este 28 Este 0.1 897.3 -1.4 99
2020-03-30 17:00:00 0 18 Este 30 Este 0 897.8 -0.8 99
2020-03-30 16:00:00 0.4 20 Este 30 Este 0 898.1 -0.5 99
2020-03-30 15:00:00 1.7 17 Este 31 Este 0 898.7 -0.2 86
2020-03-30 14:00:00 1.4 22 Este 42 Este 0 898.6 -0.5 84
2020-03-30 13:00:00 2.9 24 Este 41 Este 0 898.6 -0.6 69
2020-03-30 12:00:00 4.4 17 Nordeste 42 Este 0 898.9 -0.2 67
2020-03-30 11:00:00 4.3 16 Este 22 Este 0 899.1 0.2 72
2020-03-30 10:00:00 3.2 13 Este 19 Este 0 899.2 0.5 81
2020-03-30 09:00:00 2.3 13 Este 18 Este 0 899.1 0.4 84
2020-03-30 08:00:00 2.2 8 Este 15 Este 0 898.9 0 83
2020-03-30 07:00:00 3.1 4 Este 14 Este 0 898.7 -0.7 79
2020-03-30 06:00:00 3.4 10 Este 15 Este 0 898.7 -1.2 75
2020-03-30 05:00:00 3.7 8 Este 12 Sudeste 0 898.9 -1.3 72
2020-03-30 04:00:00 4.7 6 Este 12 Este 0 899.4 -1.1 65
2020-03-30 03:00:00 5.5 8 Este 15 Sudeste 0 899.9 -0.7 58
2020-03-30 02:00:00 6.8 5 Noroeste 19 Nordeste 0 900.2 -0.6 53
2020-03-30 01:00:00 7.7 15 Este 24 Este 0 900.5 -0.3 49
2020-03-30 00:00:00 8.7 8 Este 19 Nordeste 0 900.6 0.2 45
2020-03-29 23:00:00 9.3 9 Este 21 Nordeste 0 900.8 0.4 44
2020-03-29 22:00:00 10.6 11 Nordeste 22 Nordeste 0 900.8 0.3 42
2020-03-29 21:00:00 11.5 8 Nordeste 16 Nordeste 0 900.4 -0.4 43
2020-03-29 20:00:00 12.9 5 Norte 12 Norte 0 900.4 -0.7 41
2020-03-29 19:00:00 13.7 5 Sur 14 Sudoeste 0 900.5 -1 42
2020-03-29 18:00:00 14 9 Sudoeste 20 Sudoeste 0 900.8 -1.6 40
2020-03-29 17:00:00 15.2 10 Sudoeste 21 Sudoeste 0 901.1 -1.8 39
2020-03-29 16:00:00 14.8 6 Sudoeste 18 Sudoeste 0 901.5 -2 41
2020-03-29 15:00:00 15 10 Sur 20 Sur 0 902.4 -1.4 41
2020-03-29 14:00:00 14.1 6 Sur 19 Sur 0 902.9 -0.9 43
2020-03-29 13:00:00 12.8 8 Sur 14 Sur 0 903.5 -0.2 49
2020-03-29 12:00:00 11.7 6 Sudeste 10 Sudeste 0 903.8 0.1 50
2020-03-29 11:00:00 10.9 5 Sudeste 9 Sudeste 0 903.8 0.3 51
2020-03-29 10:00:00 8.8 0 Calma 4 Oeste 0 903.7 0.4 52
2020-03-29 09:00:00 6.2 0 Calma 4 Sudeste 0 903.7 0.4 55
2020-03-29 08:00:00 5.2 0 Calma 4 Nordeste 0 903.5 0 55
2020-03-29 07:00:00 5.1 0 Calma 3 Norte 0 903.3 -0.5 55
2020-03-29 06:00:00 5.6 0 Calma 7 Sudeste 0 903.3 -0.6 53
2020-03-29 05:00:00 5.8 0 Calma 6 Nordeste 0 903.5 -0.6 51
2020-03-29 03:00:00 6.4 4 Este 9 Este 0 903.9 -0.2 51
2020-03-29 01:00:00 7.1 7 Noroeste 10 Noroeste 0 904.1 0.1 49
2020-03-29 00:00:00 6.5 9 Noroeste 10 Norte 0 904.2 0.4 51
2020-03-28 23:00:00 6.3 8 Oeste 15 Oeste 0 904.1 0.9 50
2020-03-28 22:00:00 6.7 7 Oeste 13 Oeste 0 904 1.2 48
2020-03-28 21:00:00 7.2 6 Oeste 13 Oeste 0 903.8 1.3 45
2020-03-28 20:00:00 8.8 9 Sudoeste 15 Sudoeste 0 903.2 0.9 42
2020-03-28 19:00:00 10.5 9 Sudoeste 14 Sudoeste 0 902.8 0.4 38
2020-03-28 18:00:00 11.9 6 Sur 15 Sur 0 902.5 -0.3 37
2020-03-28 17:00:00 11.9 7 Sudeste 21 Sudeste 0 902.3 -0.8 39
2020-03-28 16:00:00 11.6 10 Sudeste 18 Sudeste 0 902.4 -0.8 40
2020-03-28 15:00:00 11.7 6 Sur 29 Sur 0 902.8 -0.8 42
2020-03-28 14:00:00 11 7 Sudeste 20 Sudeste 0 903.1 -0.3 42
2020-03-28 13:00:00 10.5 6 Sudeste 17 Sudeste 0 903.2 0.1 43
2020-03-28 12:00:00 9.9 8 Sudeste 20 Sudeste 0 903.6 0.9 46
2020-03-28 11:00:00 8.9 9 Sudeste 20 Este 0 903.4 1 49
2020-03-28 10:00:00 8.3 12 Este 18 Este 0 903.1 1.2 52
2020-03-28 09:00:00 6.4 13 Este 19 Este 0 902.7 1.3 62
2020-03-28 08:00:00 3.8 8 Nordeste 15 Nordeste 0 902.4 1.2 71
2020-03-28 07:00:00 1.4 4 Este 7 Este 0 901.9 1 84
2020-03-28 06:00:00 1.6 5 Sur 8 Sur 0 901.4 0.3 85
2020-03-28 05:00:00 1.9 4 Nordeste 16 Nordeste 0 901.2 0 76
2020-03-28 04:00:00 2.4 7 Norte 14 Norte 0 900.9 -0.1 80
2020-03-28 03:00:00 1.3 5 Noroeste 10 Noroeste 0 901.1 0.3 89
2020-03-28 02:00:00 1.4 6 Noroeste 9 Noroeste 0 901.2 0.7 84
2020-03-28 01:00:00 1.7 3 Oeste 8 Oeste 0 901 0.9 81
2020-03-28 00:00:00 2.4 5 Sudoeste 9 Sudoeste 0 900.8 1.3 80
2020-03-27 23:00:00 2.6 5 Sur 9 Sudoeste 0 900.5 1.7 75
2020-03-27 22:00:00 3.1 3 Sudoeste 10 Sudoeste 0 900.1 1.9 66
2020-03-27 21:00:00 3.8 4 Sudoeste 9 Sur 0 899.5 1.6 62
2020-03-27 20:00:00 4.7 6 Sur 9 Sur 0 898.8 1.2 55
2020-03-27 19:00:00 6.5 5 Sur 11 Sur 0 898.2 0.4 52
2020-03-27 18:00:00 7.4 3 Sudeste 17 Sudeste 0 897.9 -0.3 51
2020-03-27 17:00:00 7.2 8 Sudeste 20 Sudeste 0 897.6 -0.4 51
2020-03-27 16:00:00 7.3 9 Sudeste 24 Sudeste 0 897.8 -0.2 52
2020-03-27 15:00:00 5.7 12 Sudeste 32 Sudeste 0 898.2 0.3 59
2020-03-27 14:00:00 5.3 15 Este 31 Este 0 898 0.1 64
2020-03-27 13:00:00 5.1 19 Este 30 Este 0 898 0.6 62
2020-03-27 12:00:00 6 19 Este 30 Nordeste 0 897.9 0.8 59
2020-03-27 11:00:00 4.4 20 Este 33 Este 0 897.9 1.1 65
2020-03-27 10:00:00 2.7 23 Este 33 Este 0 897.4 0.9 68
2020-03-27 09:00:00 1 16 Nordeste 29 Nordeste 0 897.1 0.9 73
2020-03-27 08:00:00 0 13 Nordeste 25 Este 0 896.8 0.9 79
2020-03-27 07:00:00 -0.2 15 Nordeste 28 Este 0 896.5 0.9 87
2020-03-27 06:00:00 0.3 17 Nordeste 31 Este 0 896.2 0.4 72
2020-03-27 05:00:00 1 12 Nordeste 26 Norte 0 895.9 0.1 62
2020-03-27 04:00:00 1.3 11 Nordeste 30 Nordeste 0 895.6 -0.1 58
2020-03-27 03:00:00 1.7 23 Este 31 Este 0 895.8 0.1 57
2020-03-27 02:00:00 2.3 22 Este 36 Este 0 895.8 0 54
2020-03-27 01:00:00 3.5 20 Este 31 Este 0 895.7 0.3 53
2020-03-27 00:00:00 3.9 10 Este 23 Este 0 895.7 0.2 54
2020-03-26 23:00:00 3.7 11 Norte 26 Norte 0 895.8 0.2 51
2020-03-26 22:00:00 4 11 Nordeste 30 Nordeste 0 895.4 0.2 50
2020-03-26 21:00:00 4.8 12 Nordeste 27 Nordeste 0 895.5 0.6 45
2020-03-26 20:00:00 6.1 10 Norte 26 Norte 0 895.6 0.9 39
2020-03-26 19:00:00 7.8 13 Norte 32 Norte 0 895.2 0.8 35
2020-03-26 18:00:00 9 14 Norte 28 Noroeste 0 894.9 0.2 33
2020-03-26 17:00:00 9.6 13 Noroeste 28 Noroeste 0 894.7 -0.3 33
2020-03-26 16:00:00 10.5 14 Noroeste 30 Norte 0 894.4 -0.6 31
2020-03-26 15:00:00 10.7 12 Noroeste 33 Norte 0 894.7 -0.5 30
2020-03-26 14:00:00 10.4 14 Norte 31 Norte 0 895 -0.9 30
2020-03-26 13:00:00 10.3 16 Norte 30 Noroeste 0 895 -0.9 24
2020-03-26 12:00:00 10.2 13 Norte 29 Norte 0 895.2 -1 23
2020-03-26 11:00:00 9 11 Oeste 43 Noroeste 0 895.9 -0.3 30
2020-03-26 10:00:00 8.2 8 Sur 16 Sudeste 0 895.9 0 30
2020-03-26 09:00:00 7 2 Sudoeste 9 Sur 0 896.2 0.3 30
2020-03-26 08:00:00 5.2 3 Oeste 25 Nordeste 0 896.2 0.4 26
2020-03-26 07:00:00 5 13 Norte 28 Norte 0 895.9 -0.2 25
2020-03-26 06:00:00 5 5 Sudoeste 21 Norte 0 895.9 -0.8 24
2020-03-26 05:00:00 4.9 9 Nordeste 23 Norte 0 895.8 -1.7 24
2020-03-26 04:00:00 5.6 8 Nordeste 22 Nordeste 0 896.1 -1.6 26
2020-03-26 03:00:00 6.4 10 Norte 30 Nordeste 0 896.7 -1.5 24
2020-03-26 02:00:00 7 14 Nordeste 30 Norte 0 897.5 -0.8 26
2020-03-26 01:00:00 7.7 11 Nordeste 26 Norte 0 897.7 -0.6 31
2020-03-26 00:00:00 8.1 9 Norte 18 Norte 0 898.2 -0.1 35
2020-03-25 23:00:00 8.4 9 Norte 18 Nordeste 0 898.3 0.1 36
2020-03-25 22:00:00 8.8 8 Norte 18 Norte 0 898.3 0.2 36
2020-03-25 21:00:00 9.5 6 Norte 13 Norte 0 898.3 0.1 37
2020-03-25 20:00:00 10.4 8 Norte 21 Noroeste 0 898.2 -0.1 37
2020-03-25 19:00:00 11.9 14 Noroeste 28 Noroeste 0 898.1 -0.6 33
2020-03-25 18:00:00 13.3 15 Noroeste 27 Noroeste 0 898.2 -1 32
2020-03-25 17:00:00 14.1 10 Noroeste 23 Noroeste 0 898.3 -1.6 32
2020-03-25 16:00:00 14.1 10 Noroeste 23 Sudoeste 0 898.7 -- 35
2020-03-25 15:00:00 13.1 6 Sudoeste 18 Sudoeste 0 899.2 -1.8 49
2020-03-25 14:00:00 12.3 8 Sur 20 Sur 0 899.9 -1 55
2020-03-25 13:00:00 -- 7 Sur 21 Sudoeste 0 -- -- --
2020-03-25 12:00:00 9.5 11 Sudeste 17 Sudeste 0 901 -0.2 64
2020-03-25 11:00:00 8.5 10 Sur 39 Sur 0 900.9 -0.3 66
2020-03-25 10:00:00 6.6 9 Sur 15 Sudoeste 0 901.2 0 79
2020-03-25 09:00:00 5.3 6 Sur 9 Sur 0 901.2 -0.2 91
2020-03-25 08:00:00 3.6 3 Sudoeste 10 Sudoeste 0 901.2 -0.4 96
2020-03-25 07:00:00 2.9 9 Sudoeste 15 Oeste 0 901.2 -0.5 96
2020-03-25 06:00:00 3.7 8 Sudoeste 15 Sudoeste 0 901.4 -0.5 92
2020-03-25 05:00:00 4.6 10 Sudoeste 21 Sudoeste 0 901.6 -0.7 89
2020-03-25 04:00:00 5 11 Sudoeste 20 Sudoeste 0 901.7 -0.4 91
2020-03-25 03:00:00 5.6 10 Sudoeste 20 Sudoeste 0 901.9 -0.2 90
2020-03-25 02:00:00 6 5 Sur 7 Sur 0 902.3 -0.1 75
2020-03-25 01:00:00 6.4 0 Calma 12 Este 0 902.1 0.1 69
2020-03-25 00:00:00 7 6 Nordeste 15 Nordeste 0 902.1 0.1 63
2020-03-24 23:00:00 6.7 8 Nordeste 19 Nordeste 0 902.4 0.8 66
2020-03-24 22:00:00 6.8 12 Nordeste 26 Nordeste 0 902 1 67
2020-03-24 21:00:00 7.7 19 Este 28 Nordeste 0 902 1.4 64
2020-03-24 20:00:00 8.4 15 Este 24 Este 0 901.6 1.1 63
2020-03-24 19:00:00 9.2 15 Este 27 Este 0 901 0.3 58
2020-03-24 18:00:00 10.4 16 Este 26 Nordeste 0 900.6 -0.3 55
2020-03-24 17:00:00 10.8 17 Este 27 Nordeste 0 900.5 -1.1 54
2020-03-24 16:00:00 11 13 Nordeste 34 Este 0 900.7 -1.3 55
2020-03-24 15:00:00 11.3 19 Este 35 Este 0 900.9 -1.3 56
2020-03-24 14:00:00 10.5 25 Este 41 Este 0 901.6 -0.5 59
2020-03-24 13:00:00 10 25 Este 39 Este 0 902 -0.3 62
2020-03-24 12:00:00 10.2 27 Este 41 Nordeste 0 902.2 0.4 65
2020-03-24 11:00:00 9.4 27 Nordeste 44 Nordeste 0 902.1 0.5 68
2020-03-24 10:00:00 7.7 25 Nordeste 49 Nordeste 0 902.3 0.9 75
2020-03-24 09:00:00 6.8 27 Nordeste 42 Nordeste 0 901.8 0.5 79
2020-03-24 08:00:00 6.3 30 Nordeste 44 Este 0 901.6 0.7 79
2020-03-24 07:00:00 6.1 33 Nordeste 45 Este 0 901.4 -0.2 83
2020-03-24 06:00:00 6.1 25 Nordeste 36 Nordeste 0 901.3 -0.2 83
2020-03-24 05:00:00 6.4 23 Nordeste 35 Nordeste 0 900.9 -1.1 84
2020-03-24 04:00:00 6.4 19 Nordeste 31 Este 0 901.6 -0.4 81
2020-03-24 03:00:00 6.5 15 Nordeste 33 Nordeste 0 901.5 -0.6 81
2020-03-24 02:00:00 6.5 23 Este 32 Este 0 902 0 88
2020-03-24 01:00:00 6.5 13 Nordeste 23 Nordeste 0 902 0 88
2020-03-24 00:00:00 6.9 15 Nordeste 21 Nordeste 0 902.1 0.5 88
2020-03-23 23:00:00 7.3 16 Nordeste 27 Este 0 902 0.7 85
2020-03-23 22:00:00 7.4 14 Nordeste 30 Nordeste 0 902 0.9 85
2020-03-23 21:00:00 7.7 20 Nordeste 30 Nordeste 0 901.6 1.1 83
2020-03-23 20:00:00 7.3 13 Nordeste 21 Nordeste 0 901.3 1.2 82
2020-03-23 19:00:00 8.3 12 Este 28 Este 0 901.1 0.8 69
2020-03-23 18:00:00 9.2 21 Este 31 Este 0 900.5 0 66
2020-03-23 17:00:00 9.6 17 Nordeste 33 Este 0 900.1 -1.2 67
2020-03-23 16:00:00 10.8 14 Este 27 Sudeste 0 900.3 -1.5 61
2020-03-23 15:00:00 10.7 14 Este 27 Este 0 900.5 -1.2 71
2020-03-23 14:00:00 9.2 17 Este 27 Nordeste 0.1 901.3 -0.3 93
2020-03-23 13:00:00 5.8 10 Este 22 Sudeste 2.8 901.8 0.6 99
2020-03-23 12:00:00 6.6 17 Este 26 Nordeste 0.1 901.7 1.1 97
2020-03-23 11:00:00 6.4 21 Este 35 Nordeste 0.1 901.6 1.2 98
2020-03-23 10:00:00 5.8 24 Nordeste 32 Nordeste 0.1 901.2 1.1 99
2020-03-23 09:00:00 5.6 23 Nordeste 32 Este 0.1 900.6 0.8 99
2020-03-23 08:00:00 5.4 6 Nordeste 14 Nordeste 0 900.4 0.8 99
2020-03-23 07:00:00 5.2 5 Nordeste 12 Nordeste 0.2 900.1 0.7 99
2020-03-23 06:00:00 5.3 4 Nordeste 11 Nordeste 0.2 899.8 0.3 99
2020-03-23 05:00:00 5.3 8 Nordeste 11 Nordeste 0 899.6 0 99
2020-03-23 04:00:00 5.5 6 Este 14 Este 0 899.4 -0.5 99
2020-03-23 03:00:00 5.7 9 Este 13 Este 0 899.5 -0.6 99
2020-03-23 02:00:00 5.6 6 Este 9 Este 0 899.6 -0.4 99
2020-03-23 01:00:00 5.6 2 Noroeste 10 Este 0 899.9 0.3 99
2020-03-23 00:00:00 5.3 7 Este 10 Este 0.2 900.1 1.2 99
2020-03-22 23:00:00 5.7 6 Este 15 Sudeste 0.1 900 1.9 99
2020-03-22 22:00:00 6.9 12 Sudeste 25 Este 0 899.6 2.1 93
2020-03-22 21:00:00 7 3 Nordeste 13 Este 0 898.9 1.9 92
2020-03-22 20:00:00 7.2 6 Nordeste 11 Este 0 898.1 1.3 95
2020-03-22 19:00:00 7.7 6 Sudeste 12 Este 0 897.5 0.4 87
2020-03-22 18:00:00 8.3 4 Este 15 Norte 0 897 -0.8 79
2020-03-22 17:00:00 8 8 Norte 17 Norte 0 896.8 -1.2 81
2020-03-22 16:00:00 6.2 8 Noroeste 16 Noroeste 0.3 897.1 -1 92
2020-03-22 15:00:00 6 5 Nordeste 19 Nordeste 0.6 897.8 -0.5 88
2020-03-22 14:00:00 6.3 11 Este 16 Este 0.3 898 -0.1 91
2020-03-22 13:00:00 6.4 8 Nordeste 28 Nordeste 0.2 898.1 0.5 87
2020-03-22 12:00:00 6.2 13 Nordeste 27 Este 0 898.3 1 86
2020-03-22 11:00:00 6.7 11 Nordeste 18 Nordeste 0 898.1 1 83
2020-03-22 10:00:00 7 8 Este 14 Nordeste 0 897.6 0.8 83
2020-03-22 09:00:00 4.4 4 Nordeste 15 Nordeste 0 897.3 0.5 99
2020-03-22 08:00:00 3.2 7 Nordeste 19 Norte 0 897.1 0.5 99
2020-03-22 07:00:00 3.4 7 Nordeste 14 Nordeste 0 896.8 0 99
2020-03-22 06:00:00 3.7 7 Este 15 Este 0 896.8 -0.4 99
2020-03-22 05:00:00 3.9 8 Este 13 Este 0 896.6 -0.9 99
2020-03-22 04:00:00 3.9 8 Este 12 Nordeste 0.1 896.8 -0.9 99
2020-03-22 03:00:00 3.9 6 Este 11 Este 0.3 897.2 -0.7 99
2020-03-22 02:00:00 4 5 Este 8 Nordeste 0.3 897.5 -0.4 99
2020-03-22 01:00:00 4 4 Nordeste 12 Este 0.6 897.7 -0.1 99
2020-03-22 00:00:00 4.2 8 Este 12 Este 0.5 897.9 0.1 99
2020-03-21 23:00:00 4.8 6 Nordeste 11 Este 0.3 897.9 0.5 99
2020-03-21 22:00:00 4.5 0 Calma 8 Nordeste 0 897.8 0.8 99
2020-03-21 21:00:00 4.4 6 Este 10 Sur 0 897.8 1 99
2020-03-21 20:00:00 4.6 5 Sudeste 9 Sur 0.1 897.4 0.4 99
2020-03-21 19:00:00 4.6 0 Calma 12 Sudoeste 0.2 897 0 99
2020-03-21 18:00:00 4.7 6 Sudoeste 12 Sudoeste 0.4 896.8 -0.2 99
2020-03-21 17:00:00 4.4 5 Noroeste 23 Sudoeste 0.4 897 -0.7 99
2020-03-21 16:00:00 4.1 13 Sudoeste 25 Sudoeste 0.4 897 -1 99
2020-03-21 15:00:00 5.8 4 Sudeste 17 Este 0.1 897 -1.3 99
2020-03-21 14:00:00 5.7 10 Este 17 Este 0 897.7 -0.8 99
2020-03-21 13:00:00 5.7 11 Este 16 Nordeste 0 898 -0.6 99
2020-03-21 12:00:00 5.4 4 Nordeste 14 Nordeste 0.2 898.3 0 99
2020-03-21 11:00:00 5.2 10 Este 20 Este 0 898.5 0.5 93
2020-03-21 10:00:00 5.4 13 Este 20 Este 0 898.6 0.5 90
2020-03-21 09:00:00 5.6 14 Este 21 Este 0 898.3 -0.2 90
2020-03-21 08:00:00 5.1 9 Nordeste 17 Nordeste 0 898 -0.9 91
2020-03-21 07:00:00 5.1 7 Nordeste 16 Nordeste 0 898.1 -1.3 91
2020-03-21 06:00:00 5.1 11 Nordeste 15 Nordeste 0 898.5 -1.5 91
2020-03-21 05:00:00 5.1 12 Este 17 Este 0 898.9 -1.3 93
2020-03-21 04:00:00 4.8 8 Este 14 Sudeste 0 899.4 -1.1 97
2020-03-21 03:00:00 5.2 9 Sudeste 19 Sudeste 0 900 -0.6 96
2020-03-21 02:00:00 5.7 7 Sudeste 14 Sur 0 900.2 -0.3 93
2020-03-21 01:00:00 6.8 5 Este 9 Este 0 900.5 -0.2 85
2020-03-21 00:00:00 6.3 6 Nordeste 12 Este 0 900.6 -0.3 88
2020-03-20 23:00:00 6.2 5 Nordeste 16 Norte 0 900.5 -0.7 87
2020-03-20 22:00:00 6.8 6 Nordeste 15 Nordeste 0 900.7 -0.4 88
2020-03-20 21:00:00 7.2 7 Nordeste 13 Norte 0 900.9 -0.2 87
2020-03-20 20:00:00 7.2 7 Nordeste 16 Este 0 901.2 -0.1 87
2020-03-20 19:00:00 7.3 6 Nordeste 14 Nordeste 0 901.1 -0.5 85
2020-03-20 18:00:00 7.7 8 Este 13 Este 0 901.1 -0.7 83
2020-03-20 17:00:00 7.9 8 Este 14 Nordeste 0 901.3 -0.8 81
2020-03-20 16:00:00 7.8 9 Este 16 Este 0 901.6 -0.7 81
2020-03-20 15:00:00 7.9 8 Este 18 Este 0 901.8 -0.9 79
2020-03-20 14:00:00 7.7 7 Este 15 Sudeste 0 902.1 -0.9 79
2020-03-20 13:00:00 7.8 8 Este 16 Este 0 902.3 -0.6 79
2020-03-20 12:00:00 7 6 Este 12 Este 0 902.7 0.1 85
2020-03-20 11:00:00 6.2 7 Sur 13 Sudeste 0 903 0.8 88
2020-03-20 10:00:00 6 8 Sudeste 13 Sudeste 0 902.9 0.8 93
2020-03-20 09:00:00 5.9 7 Sudeste 13 Este 0 902.6 0.6 95
2020-03-20 08:00:00 5.6 0 Calma 5 Sur 0 902.2 0 99
2020-03-20 07:00:00 5.3 3 Sur 10 Este 0 902.1 -0.3 99
2020-03-20 06:00:00 5.6 6 Sudeste 9 Sudeste 0 902 -0.9 99
2020-03-20 05:00:00 5.7 6 Sudeste 13 Sudeste 0 902.2 -0.8 99
2020-03-20 04:00:00 6.2 7 Sudeste 14 Sudeste 0.1 902.4 -0.9 98
2020-03-20 03:00:00 6.9 7 Sudeste 15 Sudeste 0 902.9 -0.8 87
2020-03-20 02:00:00 7.3 8 Sudeste 12 Sudeste 0 903 -0.9 84
2020-03-20 01:00:00 7.5 6 Sudeste 14 Sudeste 0 903.3 -0.6 83
2020-03-20 00:00:00 7.5 8 Sudeste 13 Sudeste 0 903.7 0.2 82
2020-03-19 23:00:00 7.8 8 Sudeste 19 Sudeste 0 903.9 0.6 80
2020-03-19 22:00:00 8 14 Sudeste 21 Sudeste 0 903.9 0.6 79
2020-03-19 21:00:00 8.9 10 Sur 16 Sur 0 903.5 0.3 70
2020-03-19 20:00:00 10.2 5 Sudeste 10 Sur 0 903.3 -0.1 58
2020-03-19 19:00:00 11.2 4 Sudeste 11 Este 0 903.3 -0.8 53
2020-03-19 18:00:00 12.2 7 Sudeste 17 Sudeste 0 903.2 -1.3 51
2020-03-19 17:00:00 12.6 8 Sudeste 15 Sudeste 0 903.4 -2.1 49
2020-03-19 16:00:00 12.5 10 Sudeste 19 Sudeste 0 904.1 -2.1 51
2020-03-19 15:00:00 12.3 11 Este 18 Este 0 904.5 -2.3 53
2020-03-19 14:00:00 11.8 4 Este 14 Este 0 905.5 -1.9 57
2020-03-19 13:00:00 10.7 6 Sudeste 16 Este 0 906.2 -1 57
2020-03-19 12:00:00 9.7 6 Sudeste 15 Sur 0 906.8 0 57
2020-03-19 11:00:00 8.8 9 Sur 18 Sur 0 907.4 0.7 59
2020-03-19 10:00:00 7.7 10 Sur 16 Sur 0 907.2 0.4 63
2020-03-19 09:00:00 7 5 Sudoeste 8 Sudoeste 0 906.8 0 90
2020-03-19 08:00:00 7.2 4 Sudoeste 9 Sudoeste 0 906.7 0 88
2020-03-19 07:00:00 7 5 Sudoeste 10 Sudoeste 0 906.8 0 91
2020-03-19 06:00:00 7.6 4 Sudeste 6 Sudeste 0 906.8 -0.7 94
2020-03-19 05:00:00 7.7 0 Calma 5 Este 0 906.7 -1.1 90
2020-03-19 04:00:00 8.1 3 Sudeste 6 Sur 0 906.8 -1.6 88
2020-03-19 03:00:00 8.9 4 Este 7 Sudeste 0 907.5 -1.2 82
2020-03-19 02:00:00 9.7 3 Este 6 Sudeste 0 907.8 -1.1 76
2020-03-19 01:00:00 9.9 4 Sudeste 8 Este 0 908.4 -0.7 73
2020-03-19 00:00:00 10 5 Nordeste 7 Nordeste 0 908.7 -0.1 70
2020-03-18 23:00:00 10.1 5 Este 6 Nordeste 0 908.9 0.2 68
2020-03-18 22:00:00 10.2 2 Este 5 Sudeste 0 909.1 0.6 68
2020-03-18 21:00:00 10.9 0 Calma 3 Sudeste 0 908.8 0.3 68
2020-03-18 20:00:00 11.1 0 Calma 5 Oeste 0 908.7 -0.1 68
2020-03-18 19:00:00 12.1 0 Calma 5 Este 0 908.5 -0.4 67
2020-03-18 18:00:00 12.7 4 Este 9 Sudeste 0 908.5 -0.7 64
2020-03-18 17:00:00 13 6 Sudeste 11 Sudeste 0 908.8 -1.2 62
2020-03-18 16:00:00 13.8 6 Sudeste 13 Sudeste 0 908.9 -1.4 57
2020-03-18 15:00:00 14.3 4 Sudeste 12 Este 0 909.2 -1.5 59
2020-03-18 14:00:00 13.4 7 Sudeste 18 Sudeste 0 910 -1.1 64
2020-03-18 13:00:00 13 8 Este 17 Este 0 910.3 -0.8 59
2020-03-18 12:00:00 12.3 8 Este 45 Sudeste 0 910.7 -0.1 59
2020-03-18 11:00:00 9.8 9 Este 36 Sudeste 0 911.1 0.3 62
2020-03-18 10:00:00 8.8 15 Este 24 Este 0 911.1 0.1 64
2020-03-18 09:00:00 8 6 Este 21 Este 0 910.8 -0.1 68
2020-03-18 08:00:00 7.6 15 Este 27 Nordeste 0 910.8 0.5 69
2020-03-18 07:00:00 7.5 9 Nordeste 26 Este 0 911 0.9 72
2020-03-18 06:00:00 7.9 13 Este 22 Este 0 910.9 0.3 72
2020-03-18 05:00:00 7.4 14 Nordeste 27 Norte 0 910.3 -0.7 76
2020-03-18 04:00:00 7.6 14 Nordeste 28 Norte 0 910.1 -1.4 77
2020-03-18 03:00:00 7.3 15 Nordeste 28 Nordeste 0 910.6 -1.3 81
2020-03-18 02:00:00 6.9 12 Nordeste 26 Norte 0 911 -1 84
2020-03-18 01:00:00 6.7 15 Nordeste 32 Este 0 911.5 0 87
2020-03-18 00:00:00 7 12 Nordeste 30 Nordeste 0 911.9 0.6 87
2020-03-17 23:00:00 7.4 22 Nordeste 35 Este 0 912 1.3 85
2020-03-17 22:00:00 8 22 Nordeste 34 Nordeste 0 911.5 1.7 85
2020-03-17 21:00:00 8 14 Nordeste 31 Nordeste 0 911.3 1.8 88
2020-03-17 20:00:00 8.2 10 Nordeste 23 Este 0 910.7 1.6 81
2020-03-17 19:00:00 8.6 12 Nordeste 32 Este 0 909.8 0.9 76
2020-03-17 18:00:00 9.8 20 Este 37 Este 0 909.5 0.4 67
2020-03-17 17:00:00 10.6 27 Sudeste 39 Este 0 909.1 0 64
2020-03-17 16:00:00 10.4 25 Este 34 Este 0 908.9 -0.1 67
2020-03-17 15:00:00 9.7 20 Este 39 Este 0 909.1 -0.2 70
2020-03-17 14:00:00 9 26 Este 39 Este 0 909.1 0.4 75
2020-03-17 13:00:00 10 24 Este 33 Nordeste 0 909 0.6 82
2020-03-17 12:00:00 7.7 19 Este 35 Nordeste 0 909.3 1.7 95
2020-03-17 11:00:00 6.8 26 Este 41 Este 0 908.7 2 96
2020-03-17 10:00:00 5.8 21 Este 42 Este 0 908.4 2.1 99
2020-03-17 09:00:00 5.4 28 Este 45 Nordeste 0 907.6 2.1 99
2020-03-17 08:00:00 5 28 Este 42 Nordeste 0.3 906.7 1.9 99
2020-03-17 07:00:00 3.7 10 Este 19 Este 1.3 906.3 1.8 99
2020-03-17 06:00:00 2.9 7 Nordeste 17 Nordeste 1.8 905.5 1.5 99
2020-03-17 05:00:00 2.6 10 Nordeste 25 Este 0.7 904.8 0.7 99
2020-03-17 04:00:00 1.9 11 Nordeste 35 Nordeste 0.1 904.5 0.3 99
2020-03-17 03:00:00 1.4 21 Nordeste 37 Noroeste 0.1 904 0.5 99
2020-03-17 02:00:00 1.2 14 Nordeste 36 Nordeste 0.2 904.1 1.1 99
2020-03-17 01:00:00 1.3 18 Nordeste 31 Nordeste 0.6 904.2 2.1 99
2020-03-17 00:00:00 1.7 21 Nordeste 40 Nordeste 0.4 903.5 2.1 99
2020-03-16 23:00:00 2.4 23 Este 39 Este 0.3 903 2.1 99
2020-03-16 22:00:00 1.9 23 Nordeste 40 Este 0 902.1 2.3 99
2020-03-16 21:00:00 1.6 28 Nordeste 40 Nordeste 0.1 901.4 2.2 99
2020-03-16 20:00:00 0 10 Este 32 Este 1.3 900.9 2 99
2020-03-16 19:00:00 0.4 20 Este 40 Nordeste 0.6 899.8 1.8 99
2020-03-16 18:00:00 1.7 26 Nordeste 43 Nordeste 0.4 899.2 1 99
2020-03-16 17:00:00 1.3 32 Nordeste 48 Nordeste 2.6 898.9 1 99
2020-03-16 16:00:00 0.9 35 Este 57 Este 4.2 898 0.2 99
2020-03-16 15:00:00 1 18 Nordeste 26 Este 3.4 898.2 0.5 99
2020-03-16 14:00:00 -0.3 3 Norte 10 Este 1.1 897.9 0.6 99
2020-03-16 13:00:00 -0.3 5 Este 12 Noroeste 1 897.8 1.4 99
2020-03-16 12:00:00 -0.6 6 Norte 18 Este 0.1 897.7 2.6 99
2020-03-16 11:00:00 0 15 Este 29 Este 0.3 897.3 2.8 99
2020-03-16 10:00:00 1.4 16 Este 23 Este 0 896.4 2.4 97
2020-03-16 09:00:00 2.5 14 Este 18 Este 0 895.1 1.5 95
2020-03-16 08:00:00 2.1 11 Sudeste 16 Nordeste 0 894.5 0.6 89
2020-03-16 07:00:00 2.5 14 Este 29 Este 0 894 0.5 94
2020-03-16 06:00:00 2.6 17 Este 32 Este 0 893.6 -0.9 94
2020-03-16 05:00:00 4.3 15 Este 23 Este 0 893.9 -0.7 96
2020-03-16 04:00:00 5.2 7 Nordeste 13 Nordeste 0 893.5 -1.7 88
2020-03-16 03:00:00 4.8 6 Sudoeste 13 Sur 0 894.5 -1.3 92
2020-03-16 02:00:00 5.9 5 Sur 16 Sudoeste 0 894.6 -2 84
2020-03-16 01:00:00 6.3 9 Sudoeste 31 Sudoeste 0 895.2 -1.9 99
2020-03-16 00:00:00 8.1 10 Sudoeste 17 Sur 0 895.8 -0.8 99
2020-03-15 23:00:00 8 11 Sudoeste 18 Sur 0 896.6 0.1 99
2020-03-15 22:00:00 8.2 13 Sur 19 Sudeste 0 897.1 0.9 88
2020-03-15 21:00:00 9.3 10 Sudoeste 21 Sudoeste 0 896.6 0 78
2020-03-15 20:00:00 8.7 5 Oeste 55 Sudoeste 1.8 896.5 -0.7 87
2020-03-15 19:00:00 12.7 25 Sudoeste 38 Sudoeste 0 896.2 -1.6 64
2020-03-15 18:00:00 14 21 Sudoeste 40 Sur 0 896.6 -1.7 59
2020-03-15 17:00:00 14.9 24 Sudoeste 39 Sudoeste 0 897.2 -2.4 57
2020-03-15 16:00:00 14.6 21 Sudoeste 36 Sudoeste 0 897.8 -3 57
2020-03-15 15:00:00 15.6 16 Sur 28 Sur 0 898.3 -3.3 55
2020-03-15 14:00:00 15.1 12 Sur 22 Sur 0 899.6 -2.4 58
2020-03-15 13:00:00 14.1 8 Sudeste 15 Sudeste 0 900.8 -1.4 62
2020-03-15 12:00:00 13.2 5 Sur 13 Sudeste 0 901.6 -0.6 64
2020-03-15 11:00:00 11.5 6 Sudeste 13 Sudeste 0 902 0 67
2020-03-15 10:00:00 11.8 5 Sudeste 11 Sudeste 0 902.2 0.2 62
2020-03-15 09:00:00 11 6 Este 9 Sudeste 0 902.2 0 51
2020-03-15 08:00:00 8.6 3 Nordeste 12 Este 0 902 -0.4 49
2020-03-15 07:00:00 8.9 8 Sudeste 12 Sudeste 0 902 -0.7 45
2020-03-15 06:00:00 9.2 4 Noroeste 8 Nordeste 0 902.2 -0.9 43
2020-03-15 05:00:00 9.4 6 Este 10 Este 0 902.4 -1.1 42
2020-03-15 04:00:00 10.5 4 Norte 11 Norte 0 902.7 -1 41
2020-03-15 03:00:00 10.7 5 Norte 13 Nordeste 0 903.1 -0.9 41
2020-03-15 02:00:00 11.4 8 Nordeste 14 Nordeste 0 903.5 -0.8 41
2020-03-15 01:00:00 11.1 9 Nordeste 14 Nordeste 0 903.7 -0.6 45
2020-03-15 00:00:00 11.7 6 Este 14 Este 0 904 -0.3 53
2020-03-14 23:00:00 12.3 6 Noroeste 9 Noroeste 0 904.3 0.3 51
2020-03-14 22:00:00 12.4 6 Noroeste 9 Oeste 0 904.3 0.5 49
2020-03-14 21:00:00 14.1 8 Oeste 12 Sudoeste 0 904.3 0.8 46
2020-03-14 20:00:00 15.1 4 Sur 10 Sur 0 904 0.3 43
2020-03-14 19:00:00 15.7 8 Sur 12 Sudeste 0 903.8 -0.3 42
2020-03-14 18:00:00 16.7 10 Sudeste 16 Sur 0 903.5 -1 42
2020-03-14 17:00:00 17.4 9 Sudeste 19 Sudeste 0 903.7 -1.5 42
2020-03-14 16:00:00 17.5 8 Sudeste 17 Sudeste 0 904.1 -1.9 42
2020-03-14 15:00:00 17 7 Sur 16 Sur 0 904.5 -1.7 48
2020-03-14 14:00:00 16.1 6 Sudeste 14 Sur 0 905.2 -1.2 53
2020-03-14 13:00:00 14.7 8 Sudeste 15 Sudeste 0 906 -0.2 59
2020-03-14 12:00:00 14.1 7 Sur 14 Sudeste 0 906.2 0.4 62
2020-03-14 11:00:00 12.8 9 Este 17 Sudeste 0 906.4 0.9 65
2020-03-14 10:00:00 12.1 10 Este 18 Sudeste 0 906.2 1.4 69
2020-03-14 09:00:00 10.8 9 Este 15 Este 0 905.8 1.2 73
2020-03-14 08:00:00 8.5 5 Noroeste 11 Noroeste 0 905.5 1.2 84
2020-03-14 07:00:00 8.4 3 Noroeste 13 Este 0 904.8 0.5 79
2020-03-14 06:00:00 9.2 7 Este 17 Este 0 904.6 0.2 76
2020-03-14 05:00:00 9.7 7 Este 22 Este 0 904.3 -0.4 73
2020-03-14 04:00:00 9.1 6 Nordeste 14 Noroeste 0 904.3 -0.2 81
2020-03-14 03:00:00 8.8 8 Noroeste 18 Nordeste 0 904.4 0.2 79
2020-03-14 02:00:00 11.1 13 Nordeste 25 Este 0 904.7 0.5 67
2020-03-14 01:00:00 10.7 0 Calma 18 Este 0 904.5 0.7 67
2020-03-14 00:00:00 11.5 13 Este 20 Este 0 904.2 0.8 64
2020-03-13 23:00:00 12.1 8 Este 15 Este 0 904.2 1.3 60
2020-03-13 22:00:00 12.9 12 Este 19 Norte 0 903.8 1.3 56
2020-03-13 21:00:00 13.7 5 Norte 11 Noroeste 0 903.4 1.2 50
2020-03-13 20:00:00 14.7 8 Sudoeste 16 Sudoeste 0 902.9 0.8 45
2020-03-13 19:00:00 15.8 12 Sudoeste 20 Sudoeste 0 902.5 0.3 44
2020-03-13 18:00:00 17.5 9 Sur 16 Sudeste 0 902.2 -0.5 43
2020-03-13 17:00:00 18.7 10 Sur 36 Sur 0 902.1 -1.1 42
2020-03-13 16:00:00 18.5 12 Sur 25 Sudeste 0 902.2 -1.6 40
2020-03-13 15:00:00 18.1 9 Sudeste 16 Sudeste 0 902.7 -1.4 47
2020-03-13 14:00:00 17.5 8 Sudeste 16 Sudeste 0 903.2 -0.8 49
2020-03-13 13:00:00 17.1 6 Sudeste 17 Este 0 903.8 -0.3 52
2020-03-13 12:00:00 16.2 5 Este 18 Sudeste 0 904.1 0.5 53
2020-03-13 11:00:00 15.8 8 Este 20 Sur 0 904 0.6 53
2020-03-13 10:00:00 14.6 7 Este 19 Sudeste 0 904.1 1.1 55
2020-03-13 09:00:00 13 5 Este 8 Este 0 903.6 0.7 57
2020-03-13 08:00:00 11 5 Noroeste 11 Este 0 903.4 0.6 57
2020-03-13 07:00:00 12.1 6 Este 17 Este 0 903 0.2 53
2020-03-13 06:00:00 11.9 7 Nordeste 13 Nordeste 0 902.9 -0.4 53
2020-03-13 05:00:00 12.8 8 Nordeste 23 Este 0 902.8 -0.7 50
2020-03-13 04:00:00 13.6 8 Nordeste 13 Nordeste 0 902.8 -1.2 48
2020-03-13 03:00:00 13.8 3 Este 6 Este 0 903.3 -0.6 45
2020-03-13 02:00:00 13.9 5 Sur 12 Sudoeste 0 903.5 -0.6 45
2020-03-13 01:00:00 14.8 5 Este 9 Nordeste 0 904 -0.2 43
2020-03-13 00:00:00 15.4 3 Nordeste 8 Sudoeste 0 903.9 -0.3 40
2020-03-12 23:00:00 16.8 6 Sudoeste 12 Sudoeste 0 904.1 0.1 38
2020-03-12 22:00:00 16.9 6 Sudoeste 11 Sudoeste 0 904.2 0.4 39
2020-03-12 21:00:00 16.9 6 Sudoeste 12 Sudoeste 0 904.2 0.3 40
2020-03-12 20:00:00 17.6 8 Sudoeste 21 Sudoeste 0 904 0 39
2020-03-12 19:00:00 18 9 Sudoeste 17 Sur 0 903.8 -0.6 38
2020-03-12 18:00:00 19.6 8 Sudoeste 21 Sudoeste 0 903.9 -1.1 37
2020-03-12 17:00:00 20.2 11 Sur 19 Sur 0 904 -2 37
2020-03-12 16:00:00 20.4 9 Sur 19 Sur 0 904.4 -2.3 39
2020-03-12 15:00:00 20.5 11 Sur 18 Sudeste 0 905 -2.1 42
2020-03-12 14:00:00 19.5 7 Sudeste 11 Sur 0 906 -1.2 45
2020-03-12 13:00:00 19.2 6 Sur 19 Este 0 906.7 -0.5 49
2020-03-12 12:00:00 18.3 4 Sudeste 11 Sudeste 0 907.1 0.1 51
2020-03-12 11:00:00 16.9 5 Sudeste 13 Sudeste 0 907.2 0.4 53
2020-03-12 10:00:00 16.3 0 Calma 10 Nordeste 0 907.2 0.5 53
2020-03-12 09:00:00 14.9 0 Calma 6 Noroeste 0 907 0.2 51
2020-03-12 08:00:00 13.7 0 Calma 5 Este 0 906.8 -0.2 53
2020-03-12 07:00:00 13.7 5 Nordeste 11 Norte 0 906.7 -0.6 54
2020-03-12 06:00:00 13.2 9 Norte 12 Norte 0 906.8 -1.2 55
2020-03-12 05:00:00 13.4 4 Noroeste 6 Norte 0 907 -1.5 54
2020-03-12 04:00:00 13.9 3 Este 6 Nordeste 0 907.3 -1.2 53
2020-03-12 03:00:00 14.9 3 Nordeste 3 Nordeste 0 908 -0.8 51
2020-03-12 02:00:00 14.7 3 Norte 5 Noroeste 0 908.5 -0.6 51
2020-03-12 01:00:00 15.2 4 Nordeste 5 Este 0 908.5 -0.4 50
2020-03-12 00:00:00 15.3 3 Este 6 Nordeste 0 908.8 0.1 49
2020-03-11 23:00:00 16 3 Este 6 Norte 0 909.1 0.4 47
2020-03-11 22:00:00 16.5 3 Norte 8 Norte 0 908.9 0.2 46
2020-03-11 21:00:00 16.1 0 Calma 10 Sudoeste 0 908.7 0 46
2020-03-11 20:00:00 16 8 Sudoeste 10 Sudoeste 0 908.7 0.1 46
2020-03-11 19:00:00 16.9 5 Sudoeste 12 Sudoeste 0 908.7 0 44
2020-03-11 18:00:00 18.1 8 Sur 17 Sur 0 908.7 -0.6 41
2020-03-11 17:00:00 19.6 9 Sur 18 Sur 0 908.6 -1.4 41
2020-03-11 16:00:00 20.3 9 Sur 15 Sur 0 908.7 -1.8 40
2020-03-11 15:00:00 19.4 5 Sur 15 Sudeste 0 909.3 -1.6 43
2020-03-11 14:00:00 18.8 6 Sudeste 13 Sur 0 910 -1.1 45
2020-03-11 13:00:00 17.7 8 Sudeste 16 Este 0 910.5 -0.5 48
2020-03-11 12:00:00 16.3 8 Sudeste 14 Sudeste 0 910.9 0.4 51
2020-03-11 11:00:00 16 5 Sudeste 14 Sudeste 0 911.1 0.9 52
2020-03-11 10:00:00 15 2 Sur 14 Sudeste 0 911 0.8 53
2020-03-11 09:00:00 13.6 4 Sudeste 8 Noroeste 0 910.5 0.5 52
2020-03-11 08:00:00 11.8 6 Noroeste 7 Noroeste 0 910.2 0.4 54
2020-03-11 07:00:00 11.3 0 Calma 7 Este 0 910.2 0.1 54
2020-03-11 06:00:00 11.5 3 Este 5 Este 0 910 -0.4 53
2020-03-11 05:00:00 11.9 2 Sudeste 5 Sudeste 0 909.8 -1.1 51
2020-03-11 04:00:00 12.7 2 Este 7 Norte 0 910.1 -1 48
2020-03-11 03:00:00 12.9 5 Norte 8 Norte 0 910.4 -0.8 48
2020-03-11 02:00:00 13.9 3 Sur 6 Sudeste 0 910.9 -0.6 46
2020-03-11 01:00:00 13.5 4 Nordeste 8 Sudeste 0 911.1 -0.2 47
2020-03-11 00:00:00 13.6 6 Nordeste 10 Sudeste 0 911.2 0.2 46
2020-03-10 23:00:00 14.7 2 Este 13 Sudeste 0 911.5 0.6 45
2020-03-10 22:00:00 14.5 2 Nordeste 13 Sur 0 911.3 0.6 45
2020-03-10 21:00:00 15 2 Sudoeste 25 Sudeste 0 911 0.2 43
2020-03-10 20:00:00 15.1 5 Sudoeste 17 Sudoeste 0 910.9 0.2 43
2020-03-10 19:00:00 16.9 11 Sudoeste 18 Sudoeste 0 910.7 -0.3 40
2020-03-10 18:00:00 19 10 Sudoeste 17 Sur 0 910.8 -0.8 38
2020-03-10 17:00:00 19.3 9 Sur 15 Sudeste 0 910.7 -1.1 37
2020-03-10 16:00:00 18.7 7 Sudeste 14 Sudeste 0 911 -1.5 39
2020-03-10 15:00:00 17.7 7 Sur 17 Sur 0 911.6 -1 40
2020-03-10 14:00:00 16.8 9 Sudeste 18 Sur 0 911.8 -0.6 41
2020-03-10 13:00:00 15.4 8 Sudeste 23 Sudeste 0 912.5 0.3 42
2020-03-10 12:00:00 14.7 6 Sur 19 Sudeste 0 912.6 0.8 43
2020-03-10 11:00:00 13 3 Sudoeste 12 Sudeste 0 912.4 1 44
2020-03-10 10:00:00 10.3 4 Norte 10 Oeste 0 912.2 0.8 49
2020-03-10 09:00:00 8.5 6 Noroeste 10 Nordeste 0 911.8 0.9 47
2020-03-10 08:00:00 7.5 3 Norte 6 Norte 0 911.4 0.6 48
2020-03-10 07:00:00 7.2 5 Nordeste 6 Norte 0 911.4 0.7 49
2020-03-10 06:00:00 6.9 3 Este 7 Sudeste 0 910.9 -0.1 50
2020-03-10 05:00:00 7.4 5 Sudeste 7 Sudeste 0 910.8 -0.3 48
2020-03-10 04:00:00 7.2 2 Sudeste 8 Este 0 910.7 -0.4 49
2020-03-10 03:00:00 7.5 0 Calma 6 Sur 0 911 -0.2 48
2020-03-10 02:00:00 7.9 5 Sur 11 Sur 0 911.1 -0.1 47
2020-03-10 01:00:00 8.3 2 Sudeste 10 Sudeste 0 911.1 0.2 45
2020-03-10 00:00:00 8.7 5 Sudeste 12 Sudeste 0 911.2 0.5 45